sensor_id;sensor_type;location;lat;lon;timestamp;P1;durP1;ratioP1;P2;durP2;ratioP2
69775;SDS011;57049;51.450;-2.516;2022-08-19T00:02:18;3.13;;;0.10;;
69775;SDS011;57049;51.450;-2.516;2022-08-19T00:04:43;1.92;;;0.20;;
69775;SDS011;57049;51.450;-2.516;2022-08-19T00:07:23;2.65;;;0.20;;
69775;SDS011;57049;51.450;-2.516;2022-08-19T00:09:48;1.83;;;0.00;;
69775;SDS011;57049;51.450;-2.516;2022-08-19T00:12:14;1.02;;;0.00;;
69775;SDS011;57049;51.450;-2.516;2022-08-19T00:14:40;1.40;;;0.00;;
69775;SDS011;57049;51.450;-2.516;2022-08-19T00:17:11;0.43;;;0.00;;
69775;SDS011;57049;51.450;-2.516;2022-08-19T00:19:38;1.15;;;0.00;;
69775;SDS011;57049;51.450;-2.516;2022-08-19T00:22:05;2.60;;;0.10;;
69775;SDS011;57049;51.450;-2.516;2022-08-19T00:24:31;1.10;;;0.00;;
69775;SDS011;57049;51.450;-2.516;2022-08-19T00:26:57;3.23;;;0.10;;
69775;SDS011;57049;51.450;-2.516;2022-08-19T00:29:23;1.92;;;0.10;;
69775;SDS011;57049;51.450;-2.516;2022-08-19T00:31:50;3.45;;;0.20;;
69775;SDS011;57049;51.450;-2.516;2022-08-19T00:34:20;4.18;;;0.15;;
69775;SDS011;57049;51.450;-2.516;2022-08-19T00:36:49;1.98;;;0.10;;
69775;SDS011;57049;51.450;-2.516;2022-08-19T00:39:15;2.60;;;0.20;;
69775;SDS011;57049;51.450;-2.516;2022-08-19T00:41:42;3.42;;;0.20;;
69775;SDS011;57049;51.450;-2.516;2022-08-19T00:46:48;3.50;;;0.20;;
69775;SDS011;57049;51.450;-2.516;2022-08-19T00:49:36;3.70;;;0.20;;
69775;SDS011;57049;51.450;-2.516;2022-08-19T00:52:04;2.30;;;0.10;;
69775;SDS011;57049;51.450;-2.516;2022-08-19T00:54:33;2.05;;;0.10;;
69775;SDS011;57049;51.450;-2.516;2022-08-19T00:57:02;5.57;;;0.20;;
69775;SDS011;57049;51.450;-2.516;2022-08-19T00:59:31;5.28;;;0.30;;
69775;SDS011;57049;51.450;-2.516;2022-08-19T01:02:00;2.15;;;0.20;;
69775;SDS011;57049;51.450;-2.516;2022-08-19T01:04:27;3.23;;;0.20;;
69775;SDS011;57049;51.450;-2.516;2022-08-19T01:06:52;5.28;;;0.30;;
69775;SDS011;57049;51.450;-2.516;2022-08-19T01:09:18;2.70;;;0.20;;
69775;SDS011;57049;51.450;-2.516;2022-08-19T01:11:43;4.55;;;0.20;;
69775;SDS011;57049;51.450;-2.516;2022-08-19T01:14:10;2.80;;;0.13;;
69775;SDS011;57049;51.450;-2.516;2022-08-19T01:16:36;5.07;;;0.28;;
69775;SDS011;57049;51.450;-2.516;2022-08-19T01:19:03;3.05;;;0.20;;
69775;SDS011;57049;51.450;-2.516;2022-08-19T01:21:41;3.53;;;0.20;;
69775;SDS011;57049;51.450;-2.516;2022-08-19T01:24:13;5.70;;;0.20;;
69775;SDS011;57049;51.450;-2.516;2022-08-19T01:26:40;4.10;;;0.10;;
69775;SDS011;57049;51.450;-2.516;2022-08-19T01:29:10;2.72;;;0.17;;
69775;SDS011;57049;51.450;-2.516;2022-08-19T01:31:36;4.47;;;0.20;;
69775;SDS011;57049;51.450;-2.516;2022-08-19T01:34:04;2.30;;;0.10;;
69775;SDS011;57049;51.450;-2.516;2022-08-19T01:36:32;3.35;;;0.20;;
69775;SDS011;57049;51.450;-2.516;2022-08-19T01:39:01;2.70;;;0.10;;
69775;SDS011;57049;51.450;-2.516;2022-08-19T01:41:28;2.00;;;0.20;;
69775;SDS011;57049;51.450;-2.516;2022-08-19T01:43:54;4.40;;;0.20;;
69775;SDS011;57049;51.450;-2.516;2022-08-19T01:46:21;2.03;;;0.13;;
69775;SDS011;57049;51.450;-2.516;2022-08-19T01:48:47;4.90;;;0.30;;
69775;SDS011;57049;51.450;-2.516;2022-08-19T01:51:12;3.00;;;0.30;;
69775;SDS011;57049;51.450;-2.516;2022-08-19T01:53:39;3.53;;;0.13;;
69775;SDS011;57049;51.450;-2.516;2022-08-19T01:56:05;3.70;;;0.20;;
69775;SDS011;57049;51.450;-2.516;2022-08-19T01:58:41;2.75;;;0.20;;
69775;SDS011;57049;51.450;-2.516;2022-08-19T02:01:12;2.20;;;0.38;;
69775;SDS011;57049;51.450;-2.516;2022-08-19T02:03:39;3.78;;;0.30;;
69775;SDS011;57049;51.450;-2.516;2022-08-19T02:06:04;4.77;;;0.50;;
69775;SDS011;57049;51.450;-2.516;2022-08-19T02:08:31;2.85;;;0.30;;
69775;SDS011;57049;51.450;-2.516;2022-08-19T02:10:57;3.78;;;0.30;;
69775;SDS011;57049;51.450;-2.516;2022-08-19T02:13:23;3.87;;;0.47;;
69775;SDS011;57049;51.450;-2.516;2022-08-19T02:15:50;5.55;;;0.35;;
69775;SDS011;57049;51.450;-2.516;2022-08-19T02:18:16;5.47;;;0.75;;
69775;SDS011;57049;51.450;-2.516;2022-08-19T02:20:42;4.28;;;0.50;;
69775;SDS011;57049;51.450;-2.516;2022-08-19T02:23:12;4.53;;;0.43;;
69775;SDS011;57049;51.450;-2.516;2022-08-19T02:25:38;3.63;;;0.60;;
69775;SDS011;57049;51.450;-2.516;2022-08-19T02:28:05;4.00;;;0.80;;
69775;SDS011;57049;51.450;-2.516;2022-08-19T02:30:31;4.30;;;0.50;;
69775;SDS011;57049;51.450;-2.516;2022-08-19T02:32:57;5.55;;;0.60;;
69775;SDS011;57049;51.450;-2.516;2022-08-19T02:35:22;6.73;;;0.53;;
69775;SDS011;57049;51.450;-2.516;2022-08-19T02:37:48;4.43;;;0.47;;
69775;SDS011;57049;51.450;-2.516;2022-08-19T02:40:32;4.78;;;0.63;;
69775;SDS011;57049;51.450;-2.516;2022-08-19T02:43:02;4.90;;;0.57;;
69775;SDS011;57049;51.450;-2.516;2022-08-19T02:45:34;4.50;;;0.60;;
69775;SDS011;57049;51.450;-2.516;2022-08-19T02:48:02;8.57;;;0.90;;
69775;SDS011;57049;51.450;-2.516;2022-08-19T02:50:28;6.28;;;0.82;;
69775;SDS011;57049;51.450;-2.516;2022-08-19T02:52:53;4.40;;;0.50;;
69775;SDS011;57049;51.450;-2.516;2022-08-19T02:55:19;5.60;;;0.63;;
69775;SDS011;57049;51.450;-2.516;2022-08-19T02:57:45;5.55;;;0.85;;
69775;SDS011;57049;51.450;-2.516;2022-08-19T03:00:11;6.87;;;0.80;;
69775;SDS011;57049;51.450;-2.516;2022-08-19T03:02:38;5.40;;;0.70;;
69775;SDS011;57049;51.450;-2.516;2022-08-19T03:05:04;5.40;;;0.70;;
69775;SDS011;57049;51.450;-2.516;2022-08-19T03:07:30;7.70;;;0.60;;
69775;SDS011;57049;51.450;-2.516;2022-08-19T03:09:56;4.73;;;0.57;;
69775;SDS011;57049;51.450;-2.516;2022-08-19T03:12:22;6.30;;;0.60;;
69775;SDS011;57049;51.450;-2.516;2022-08-19T03:14:48;5.57;;;0.50;;
69775;SDS011;57049;51.450;-2.516;2022-08-19T03:17:14;4.97;;;0.50;;
69775;SDS011;57049;51.450;-2.516;2022-08-19T03:19:39;7.07;;;0.87;;
69775;SDS011;57049;51.450;-2.516;2022-08-19T03:22:05;5.68;;;0.80;;
69775;SDS011;57049;51.450;-2.516;2022-08-19T03:24:31;4.40;;;0.53;;
69775;SDS011;57049;51.450;-2.516;2022-08-19T03:26:57;6.38;;;0.60;;
69775;SDS011;57049;51.450;-2.516;2022-08-19T03:29:24;7.30;;;1.15;;
69775;SDS011;57049;51.450;-2.516;2022-08-19T03:31:51;6.00;;;0.70;;
69775;SDS011;57049;51.450;-2.516;2022-08-19T03:34:21;12.20;;;1.35;;
69775;SDS011;57049;51.450;-2.516;2022-08-19T03:36:51;9.35;;;0.68;;
69775;SDS011;57049;51.450;-2.516;2022-08-19T03:39:17;5.18;;;0.65;;
69775;SDS011;57049;51.450;-2.516;2022-08-19T03:41:43;5.33;;;0.60;;
69775;SDS011;57049;51.450;-2.516;2022-08-19T03:44:10;5.93;;;0.65;;
69775;SDS011;57049;51.450;-2.516;2022-08-19T03:46:35;6.45;;;0.70;;
69775;SDS011;57049;51.450;-2.516;2022-08-19T03:49:02;10.13;;;1.30;;
69775;SDS011;57049;51.450;-2.516;2022-08-19T03:51:34;10.02;;;1.10;;
69775;SDS011;57049;51.450;-2.516;2022-08-19T03:54:04;9.13;;;0.85;;
69775;SDS011;57049;51.450;-2.516;2022-08-19T03:56:33;8.73;;;1.08;;
69775;SDS011;57049;51.450;-2.516;2022-08-19T03:59:01;7.33;;;0.83;;
69775;SDS011;57049;51.450;-2.516;2022-08-19T04:01:27;11.93;;;1.10;;
69775;SDS011;57049;51.450;-2.516;2022-08-19T04:03:55;9.82;;;1.25;;
69775;SDS011;57049;51.450;-2.516;2022-08-19T04:06:22;11.95;;;1.10;;
69775;SDS011;57049;51.450;-2.516;2022-08-19T04:08:50;9.73;;;1.20;;
69775;SDS011;57049;51.450;-2.516;2022-08-19T04:11:21;11.70;;;1.20;;
69775;SDS011;57049;51.450;-2.516;2022-08-19T04:13:49;11.43;;;1.02;;
69775;SDS011;57049;51.450;-2.516;2022-08-19T04:16:16;8.77;;;1.17;;
69775;SDS011;57049;51.450;-2.516;2022-08-19T04:18:42;13.07;;;1.15;;
69775;SDS011;57049;51.450;-2.516;2022-08-19T04:21:08;7.10;;;1.77;;
69775;SDS011;57049;51.450;-2.516;2022-08-19T04:23:41;9.00;;;1.27;;
69775;SDS011;57049;51.450;-2.516;2022-08-19T04:26:07;10.27;;;1.33;;
69775;SDS011;57049;51.450;-2.516;2022-08-19T04:28:39;10.07;;;1.10;;
69775;SDS011;57049;51.450;-2.516;2022-08-19T04:31:05;16.15;;;1.55;;
69775;SDS011;57049;51.450;-2.516;2022-08-19T04:33:30;10.68;;;1.55;;
69775;SDS011;57049;51.450;-2.516;2022-08-19T04:35:56;11.07;;;1.43;;
69775;SDS011;57049;51.450;-2.516;2022-08-19T04:38:23;9.27;;;1.63;;
69775;SDS011;57049;51.450;-2.516;2022-08-19T04:40:49;9.95;;;1.15;;
69775;SDS011;57049;51.450;-2.516;2022-08-19T04:43:35;12.40;;;1.43;;
69775;SDS011;57049;51.450;-2.516;2022-08-19T04:46:06;9.80;;;1.20;;
69775;SDS011;57049;51.450;-2.516;2022-08-19T04:48:33;11.50;;;2.13;;
69775;SDS011;57049;51.450;-2.516;2022-08-19T04:50:59;10.05;;;1.48;;
69775;SDS011;57049;51.450;-2.516;2022-08-19T04:53:25;10.20;;;1.30;;
69775;SDS011;57049;51.450;-2.516;2022-08-19T04:55:53;11.23;;;1.52;;
69775;SDS011;57049;51.450;-2.516;2022-08-19T04:58:23;14.15;;;1.50;;
69775;SDS011;57049;51.450;-2.516;2022-08-19T05:00:52;7.90;;;1.65;;
69775;SDS011;57049;51.450;-2.516;2022-08-19T05:03:18;16.03;;;1.70;;
69775;SDS011;57049;51.450;-2.516;2022-08-19T05:05:45;9.25;;;1.77;;
69775;SDS011;57049;51.450;-2.516;2022-08-19T05:08:13;18.17;;;4.57;;
69775;SDS011;57049;51.450;-2.516;2022-08-19T05:10:45;12.73;;;2.27;;
69775;SDS011;57049;51.450;-2.516;2022-08-19T05:13:13;13.27;;;2.00;;
69775;SDS011;57049;51.450;-2.516;2022-08-19T05:15:39;12.85;;;2.55;;
69775;SDS011;57049;51.450;-2.516;2022-08-19T05:18:05;10.60;;;1.52;;
69775;SDS011;57049;51.450;-2.516;2022-08-19T05:20:50;9.38;;;1.70;;
69775;SDS011;57049;51.450;-2.516;2022-08-19T05:23:34;10.57;;;1.57;;
69775;SDS011;57049;51.450;-2.516;2022-08-19T05:25:59;9.20;;;2.47;;
69775;SDS011;57049;51.450;-2.516;2022-08-19T05:28:25;19.53;;;4.37;;
69775;SDS011;57049;51.450;-2.516;2022-08-19T05:30:50;13.70;;;3.60;;
69775;SDS011;57049;51.450;-2.516;2022-08-19T05:33:17;11.23;;;2.00;;
69775;SDS011;57049;51.450;-2.516;2022-08-19T05:35:43;12.80;;;3.03;;
69775;SDS011;57049;51.450;-2.516;2022-08-19T05:38:09;9.23;;;1.90;;
69775;SDS011;57049;51.450;-2.516;2022-08-19T05:40:36;12.20;;;2.30;;
69775;SDS011;57049;51.450;-2.516;2022-08-19T05:43:03;11.73;;;1.90;;
69775;SDS011;57049;51.450;-2.516;2022-08-19T05:45:31;15.15;;;2.10;;
69775;SDS011;57049;51.450;-2.516;2022-08-19T05:48:03;13.48;;;2.55;;
69775;SDS011;57049;51.450;-2.516;2022-08-19T05:50:28;12.17;;;3.33;;
69775;SDS011;57049;51.450;-2.516;2022-08-19T05:52:54;7.88;;;2.03;;
69775;SDS011;57049;51.450;-2.516;2022-08-19T05:55:20;17.70;;;3.35;;
69775;SDS011;57049;51.450;-2.516;2022-08-19T05:57:48;10.43;;;2.77;;
69775;SDS011;57049;51.450;-2.516;2022-08-19T06:00:14;14.52;;;2.50;;
69775;SDS011;57049;51.450;-2.516;2022-08-19T06:02:41;9.60;;;2.00;;
69775;SDS011;57049;51.450;-2.516;2022-08-19T06:05:07;8.98;;;2.13;;
69775;SDS011;57049;51.450;-2.516;2022-08-19T06:07:37;8.77;;;2.00;;
69775;SDS011;57049;51.450;-2.516;2022-08-19T06:10:03;10.50;;;1.77;;
69775;SDS011;57049;51.450;-2.516;2022-08-19T06:12:31;7.07;;;1.85;;
69775;SDS011;57049;51.450;-2.516;2022-08-19T06:14:59;9.73;;;1.63;;
69775;SDS011;57049;51.450;-2.516;2022-08-19T06:17:26;7.43;;;1.70;;
69775;SDS011;57049;51.450;-2.516;2022-08-19T06:19:52;8.13;;;1.43;;
69775;SDS011;57049;51.450;-2.516;2022-08-19T06:22:18;8.98;;;1.33;;
69775;SDS011;57049;51.450;-2.516;2022-08-19T06:24:44;8.67;;;1.67;;
69775;SDS011;57049;51.450;-2.516;2022-08-19T06:27:09;8.43;;;1.30;;
69775;SDS011;57049;51.450;-2.516;2022-08-19T06:29:35;8.77;;;1.50;;
69775;SDS011;57049;51.450;-2.516;2022-08-19T06:32:01;7.55;;;1.33;;
69775;SDS011;57049;51.450;-2.516;2022-08-19T06:34:29;8.73;;;1.43;;
69775;SDS011;57049;51.450;-2.516;2022-08-19T06:36:56;7.10;;;1.98;;
69775;SDS011;57049;51.450;-2.516;2022-08-19T06:39:27;9.45;;;1.80;;
69775;SDS011;57049;51.450;-2.516;2022-08-19T06:41:56;7.68;;;1.60;;
69775;SDS011;57049;51.450;-2.516;2022-08-19T06:44:24;11.23;;;1.88;;
69775;SDS011;57049;51.450;-2.516;2022-08-19T06:46:52;9.67;;;2.60;;
69775;SDS011;57049;51.450;-2.516;2022-08-19T06:49:18;6.82;;;2.50;;
69775;SDS011;57049;51.450;-2.516;2022-08-19T06:51:48;7.55;;;2.38;;
69775;SDS011;57049;51.450;-2.516;2022-08-19T06:54:18;9.70;;;2.35;;
69775;SDS011;57049;51.450;-2.516;2022-08-19T06:57:06;8.13;;;1.73;;
69775;SDS011;57049;51.450;-2.516;2022-08-19T06:59:34;7.83;;;1.43;;
69775;SDS011;57049;51.450;-2.516;2022-08-19T07:02:02;9.55;;;1.58;;
69775;SDS011;57049;51.450;-2.516;2022-08-19T07:04:31;6.47;;;1.30;;
69775;SDS011;57049;51.450;-2.516;2022-08-19T07:07:03;7.85;;;1.63;;
69775;SDS011;57049;51.450;-2.516;2022-08-19T07:09:36;7.82;;;1.70;;
69775;SDS011;57049;51.450;-2.516;2022-08-19T07:12:07;7.57;;;1.60;;
69775;SDS011;57049;51.450;-2.516;2022-08-19T07:14:38;7.30;;;1.50;;
69775;SDS011;57049;51.450;-2.516;2022-08-19T07:17:07;7.00;;;1.80;;
69775;SDS011;57049;51.450;-2.516;2022-08-19T07:19:34;7.65;;;1.30;;
69775;SDS011;57049;51.450;-2.516;2022-08-19T07:22:03;9.00;;;1.30;;
69775;SDS011;57049;51.450;-2.516;2022-08-19T07:24:30;7.83;;;1.67;;
69775;SDS011;57049;51.450;-2.516;2022-08-19T07:26:57;7.78;;;1.67;;
69775;SDS011;57049;51.450;-2.516;2022-08-19T07:29:25;6.22;;;1.40;;
69775;SDS011;57049;51.450;-2.516;2022-08-19T07:31:53;6.68;;;1.00;;
69775;SDS011;57049;51.450;-2.516;2022-08-19T07:34:21;8.30;;;1.70;;
69775;SDS011;57049;51.450;-2.516;2022-08-19T07:36:48;5.90;;;1.17;;
69775;SDS011;57049;51.450;-2.516;2022-08-19T07:39:15;8.20;;;1.33;;
69775;SDS011;57049;51.450;-2.516;2022-08-19T07:41:43;5.43;;;1.25;;
69775;SDS011;57049;51.450;-2.516;2022-08-19T07:44:10;8.82;;;1.48;;
69775;SDS011;57049;51.450;-2.516;2022-08-19T07:46:38;6.65;;;1.33;;
69775;SDS011;57049;51.450;-2.516;2022-08-19T07:49:05;7.13;;;1.60;;
69775;SDS011;57049;51.450;-2.516;2022-08-19T07:51:31;5.45;;;1.50;;
69775;SDS011;57049;51.450;-2.516;2022-08-19T07:53:58;8.15;;;1.35;;
69775;SDS011;57049;51.450;-2.516;2022-08-19T07:56:23;7.90;;;1.50;;
69775;SDS011;57049;51.450;-2.516;2022-08-19T07:58:50;8.90;;;1.70;;
69775;SDS011;57049;51.450;-2.516;2022-08-19T08:01:17;6.95;;;1.67;;
69775;SDS011;57049;51.450;-2.516;2022-08-19T08:03:45;6.28;;;1.35;;
69775;SDS011;57049;51.450;-2.516;2022-08-19T08:06:30;7.37;;;1.60;;
69775;SDS011;57049;51.450;-2.516;2022-08-19T08:09:14;8.25;;;2.03;;
69775;SDS011;57049;51.450;-2.516;2022-08-19T08:11:55;8.68;;;1.75;;
69775;SDS011;57049;51.450;-2.516;2022-08-19T08:14:25;5.00;;;1.45;;
69775;SDS011;57049;51.450;-2.516;2022-08-19T08:16:56;8.10;;;1.90;;
69775;SDS011;57049;51.450;-2.516;2022-08-19T08:19:24;7.27;;;1.90;;
69775;SDS011;57049;51.450;-2.516;2022-08-19T08:21:50;6.45;;;1.77;;
69775;SDS011;57049;51.450;-2.516;2022-08-19T08:24:17;5.97;;;2.08;;
69775;SDS011;57049;51.450;-2.516;2022-08-19T08:26:43;5.22;;;1.42;;
69775;SDS011;57049;51.450;-2.516;2022-08-19T08:29:10;9.68;;;1.65;;
69775;SDS011;57049;51.450;-2.516;2022-08-19T08:31:36;5.33;;;1.70;;
69775;SDS011;57049;51.450;-2.516;2022-08-19T08:34:02;6.75;;;2.05;;
69775;SDS011;57049;51.450;-2.516;2022-08-19T08:36:27;6.70;;;2.00;;
69775;SDS011;57049;51.450;-2.516;2022-08-19T08:38:53;7.13;;;1.98;;
69775;SDS011;57049;51.450;-2.516;2022-08-19T08:41:25;12.93;;;2.53;;
69775;SDS011;57049;51.450;-2.516;2022-08-19T08:43:59;6.18;;;1.80;;
69775;SDS011;57049;51.450;-2.516;2022-08-19T08:46:42;11.23;;;1.92;;
69775;SDS011;57049;51.450;-2.516;2022-08-19T08:52:00;5.60;;;1.20;;
69775;SDS011;57049;51.450;-2.516;2022-08-19T08:54:35;7.47;;;1.10;;
69775;SDS011;57049;51.450;-2.516;2022-08-19T08:57:09;8.70;;;1.23;;
69775;SDS011;57049;51.450;-2.516;2022-08-19T08:59:57;6.63;;;0.95;;
69775;SDS011;57049;51.450;-2.516;2022-08-19T09:02:27;8.05;;;0.85;;
69775;SDS011;57049;51.450;-2.516;2022-08-19T09:04:54;5.53;;;0.80;;
69775;SDS011;57049;51.450;-2.516;2022-08-19T09:07:31;10.77;;;0.98;;
69775;SDS011;57049;51.450;-2.516;2022-08-19T09:13:05;6.50;;;0.40;;
69775;SDS011;57049;51.450;-2.516;2022-08-19T09:15:40;5.90;;;0.60;;
69775;SDS011;57049;51.450;-2.516;2022-08-19T09:18:10;5.15;;;0.70;;
69775;SDS011;57049;51.450;-2.516;2022-08-19T09:20:36;6.88;;;0.75;;
69775;SDS011;57049;51.450;-2.516;2022-08-19T09:23:02;5.50;;;0.80;;
69775;SDS011;57049;51.450;-2.516;2022-08-19T09:25:27;7.20;;;0.77;;
69775;SDS011;57049;51.450;-2.516;2022-08-19T09:27:53;5.67;;;0.57;;
69775;SDS011;57049;51.450;-2.516;2022-08-19T09:30:25;9.25;;;1.38;;
69775;SDS011;57049;51.450;-2.516;2022-08-19T09:32:53;8.68;;;1.02;;
69775;SDS011;57049;51.450;-2.516;2022-08-19T09:35:20;7.65;;;0.80;;
69775;SDS011;57049;51.450;-2.516;2022-08-19T09:37:47;3.85;;;0.52;;
69775;SDS011;57049;51.450;-2.516;2022-08-19T09:40:14;5.33;;;0.50;;
69775;SDS011;57049;51.450;-2.516;2022-08-19T09:42:41;5.55;;;0.52;;
69775;SDS011;57049;51.450;-2.516;2022-08-19T09:45:08;8.30;;;0.77;;
69775;SDS011;57049;51.450;-2.516;2022-08-19T09:47:35;7.60;;;0.68;;
69775;SDS011;57049;51.450;-2.516;2022-08-19T09:50:03;8.02;;;0.70;;
69775;SDS011;57049;51.450;-2.516;2022-08-19T09:52:30;9.37;;;0.53;;
69775;SDS011;57049;51.450;-2.516;2022-08-19T09:54:56;7.05;;;0.60;;
69775;SDS011;57049;51.450;-2.516;2022-08-19T09:57:21;5.17;;;0.70;;
69775;SDS011;57049;51.450;-2.516;2022-08-19T09:59:47;10.23;;;1.00;;
69775;SDS011;57049;51.450;-2.516;2022-08-19T10:02:13;7.70;;;0.80;;
69775;SDS011;57049;51.450;-2.516;2022-08-19T10:04:38;6.65;;;0.70;;
69775;SDS011;57049;51.450;-2.516;2022-08-19T10:07:22;6.88;;;0.93;;
69775;SDS011;57049;51.450;-2.516;2022-08-19T10:09:48;8.40;;;0.70;;
69775;SDS011;57049;51.450;-2.516;2022-08-19T10:12:13;8.83;;;0.97;;
69775;SDS011;57049;51.450;-2.516;2022-08-19T10:14:40;7.55;;;0.90;;
69775;SDS011;57049;51.450;-2.516;2022-08-19T10:17:05;9.37;;;0.87;;
69775;SDS011;57049;51.450;-2.516;2022-08-19T10:19:31;7.32;;;1.15;;
69775;SDS011;57049;51.450;-2.516;2022-08-19T10:22:02;10.43;;;1.23;;
69775;SDS011;57049;51.450;-2.516;2022-08-19T10:24:29;7.83;;;1.03;;
69775;SDS011;57049;51.450;-2.516;2022-08-19T10:26:56;10.18;;;1.27;;
69775;SDS011;57049;51.450;-2.516;2022-08-19T10:29:21;8.32;;;1.10;;
69775;SDS011;57049;51.450;-2.516;2022-08-19T10:31:47;8.90;;;0.90;;
69775;SDS011;57049;51.450;-2.516;2022-08-19T10:34:12;8.50;;;0.97;;
69775;SDS011;57049;51.450;-2.516;2022-08-19T10:36:38;6.73;;;0.87;;
69775;SDS011;57049;51.450;-2.516;2022-08-19T10:39:05;9.87;;;1.93;;
69775;SDS011;57049;51.450;-2.516;2022-08-19T10:41:33;12.73;;;1.73;;
69775;SDS011;57049;51.450;-2.516;2022-08-19T10:44:02;9.23;;;1.02;;
69775;SDS011;57049;51.450;-2.516;2022-08-19T10:46:30;6.93;;;0.80;;
69775;SDS011;57049;51.450;-2.516;2022-08-19T10:48:57;9.47;;;1.10;;
69775;SDS011;57049;51.450;-2.516;2022-08-19T10:51:24;7.60;;;0.88;;
69775;SDS011;57049;51.450;-2.516;2022-08-19T10:54:08;9.43;;;0.90;;
69775;SDS011;57049;51.450;-2.516;2022-08-19T10:56:34;10.63;;;1.53;;
69775;SDS011;57049;51.450;-2.516;2022-08-19T10:59:25;8.65;;;1.20;;
69775;SDS011;57049;51.450;-2.516;2022-08-19T11:02:00;8.88;;;1.45;;
69775;SDS011;57049;51.450;-2.516;2022-08-19T11:04:27;7.18;;;0.80;;
69775;SDS011;57049;51.450;-2.516;2022-08-19T11:06:53;7.80;;;0.93;;
69775;SDS011;57049;51.450;-2.516;2022-08-19T11:09:20;7.53;;;0.80;;
69775;SDS011;57049;51.450;-2.516;2022-08-19T11:11:49;11.48;;;1.00;;
69775;SDS011;57049;51.450;-2.516;2022-08-19T11:14:16;9.97;;;1.80;;
69775;SDS011;57049;51.450;-2.516;2022-08-19T11:16:45;8.27;;;0.80;;
69775;SDS011;57049;51.450;-2.516;2022-08-19T11:19:11;7.72;;;1.00;;
69775;SDS011;57049;51.450;-2.516;2022-08-19T11:21:39;7.78;;;0.85;;
69775;SDS011;57049;51.450;-2.516;2022-08-19T11:24:12;9.55;;;0.90;;
69775;SDS011;57049;51.450;-2.516;2022-08-19T11:26:40;8.23;;;0.90;;
69775;SDS011;57049;51.450;-2.516;2022-08-19T11:29:07;10.07;;;1.35;;
69775;SDS011;57049;51.450;-2.516;2022-08-19T11:31:39;8.55;;;0.90;;
69775;SDS011;57049;51.450;-2.516;2022-08-19T11:34:07;12.05;;;1.05;;
69775;SDS011;57049;51.450;-2.516;2022-08-19T11:36:36;7.32;;;0.90;;
69775;SDS011;57049;51.450;-2.516;2022-08-19T11:39:07;8.47;;;0.97;;
69775;SDS011;57049;51.450;-2.516;2022-08-19T11:41:33;10.30;;;0.85;;
69775;SDS011;57049;51.450;-2.516;2022-08-19T11:43:59;7.00;;;0.70;;
69775;SDS011;57049;51.450;-2.516;2022-08-19T11:46:25;9.57;;;1.43;;
69775;SDS011;57049;51.450;-2.516;2022-08-19T11:48:54;7.65;;;0.90;;
69775;SDS011;57049;51.450;-2.516;2022-08-19T11:51:21;8.68;;;1.10;;
69775;SDS011;57049;51.450;-2.516;2022-08-19T11:53:49;10.35;;;0.93;;
69775;SDS011;57049;51.450;-2.516;2022-08-19T11:56:16;5.10;;;0.63;;
69775;SDS011;57049;51.450;-2.516;2022-08-19T11:58:42;8.53;;;0.77;;
69775;SDS011;57049;51.450;-2.516;2022-08-19T12:01:08;7.32;;;0.90;;
69775;SDS011;57049;51.450;-2.516;2022-08-19T12:03:36;7.78;;;0.70;;
69775;SDS011;57049;51.450;-2.516;2022-08-19T12:06:03;7.35;;;0.60;;
69775;SDS011;57049;51.450;-2.516;2022-08-19T12:08:37;8.85;;;1.10;;
69775;SDS011;57049;51.450;-2.516;2022-08-19T12:11:03;5.83;;;0.70;;
69775;SDS011;57049;51.450;-2.516;2022-08-19T12:13:32;8.70;;;0.90;;
69775;SDS011;57049;51.450;-2.516;2022-08-19T12:15:59;7.97;;;0.80;;
69775;SDS011;57049;51.450;-2.516;2022-08-19T12:18:25;9.63;;;0.88;;
69775;SDS011;57049;51.450;-2.516;2022-08-19T12:20:51;10.57;;;1.10;;
69775;SDS011;57049;51.450;-2.516;2022-08-19T12:23:19;12.07;;;0.80;;
69775;SDS011;57049;51.450;-2.516;2022-08-19T12:25:46;8.35;;;0.60;;
69775;SDS011;57049;51.450;-2.516;2022-08-19T12:28:15;8.93;;;1.10;;
69775;SDS011;57049;51.450;-2.516;2022-08-19T12:30:41;8.50;;;1.40;;
69775;SDS011;57049;51.450;-2.516;2022-08-19T12:33:08;8.40;;;0.88;;
69775;SDS011;57049;51.450;-2.516;2022-08-19T12:35:33;5.00;;;0.50;;
69775;SDS011;57049;51.450;-2.516;2022-08-19T12:37:59;9.20;;;0.98;;
69775;SDS011;57049;51.450;-2.516;2022-08-19T12:40:25;7.97;;;1.30;;
69775;SDS011;57049;51.450;-2.516;2022-08-19T12:42:50;9.27;;;1.50;;
69775;SDS011;57049;51.450;-2.516;2022-08-19T12:45:16;8.63;;;1.37;;
69775;SDS011;57049;51.450;-2.516;2022-08-19T12:47:41;7.40;;;0.65;;
69775;SDS011;57049;51.450;-2.516;2022-08-19T12:50:08;5.73;;;0.60;;
69775;SDS011;57049;51.450;-2.516;2022-08-19T12:52:34;7.30;;;0.80;;
69775;SDS011;57049;51.450;-2.516;2022-08-19T12:55:02;5.25;;;0.50;;
69775;SDS011;57049;51.450;-2.516;2022-08-19T12:57:30;6.85;;;0.90;;
69775;SDS011;57049;51.450;-2.516;2022-08-19T12:59:58;8.97;;;0.67;;
69775;SDS011;57049;51.450;-2.516;2022-08-19T13:02:32;8.27;;;0.73;;
69775;SDS011;57049;51.450;-2.516;2022-08-19T13:04:59;9.23;;;0.80;;
69775;SDS011;57049;51.450;-2.516;2022-08-19T13:07:25;6.00;;;0.53;;
69775;SDS011;57049;51.450;-2.516;2022-08-19T13:09:51;8.75;;;1.02;;
69775;SDS011;57049;51.450;-2.516;2022-08-19T13:12:17;9.10;;;1.20;;
69775;SDS011;57049;51.450;-2.516;2022-08-19T13:14:45;9.07;;;0.93;;
69775;SDS011;57049;51.450;-2.516;2022-08-19T13:17:15;8.15;;;1.23;;
69775;SDS011;57049;51.450;-2.516;2022-08-19T13:19:41;6.03;;;0.47;;
69775;SDS011;57049;51.450;-2.516;2022-08-19T13:22:07;8.10;;;0.87;;
69775;SDS011;57049;51.450;-2.516;2022-08-19T13:24:32;9.50;;;0.70;;
69775;SDS011;57049;51.450;-2.516;2022-08-19T13:26:58;7.10;;;0.95;;
69775;SDS011;57049;51.450;-2.516;2022-08-19T13:29:24;8.25;;;1.00;;
69775;SDS011;57049;51.450;-2.516;2022-08-19T13:32:09;6.87;;;0.70;;
69775;SDS011;57049;51.450;-2.516;2022-08-19T13:34:53;7.13;;;0.85;;
69775;SDS011;57049;51.450;-2.516;2022-08-19T13:37:18;7.77;;;0.90;;
69775;SDS011;57049;51.450;-2.516;2022-08-19T13:40:04;5.72;;;0.70;;
69775;SDS011;57049;51.450;-2.516;2022-08-19T13:42:30;6.93;;;0.77;;
69775;SDS011;57049;51.450;-2.516;2022-08-19T13:44:56;9.07;;;0.95;;
69775;SDS011;57049;51.450;-2.516;2022-08-19T13:47:23;5.03;;;1.00;;
69775;SDS011;57049;51.450;-2.516;2022-08-19T13:49:49;6.30;;;0.77;;
69775;SDS011;57049;51.450;-2.516;2022-08-19T13:52:15;8.43;;;0.68;;
69775;SDS011;57049;51.450;-2.516;2022-08-19T13:54:40;7.83;;;0.67;;
69775;SDS011;57049;51.450;-2.516;2022-08-19T13:57:06;5.25;;;0.50;;
69775;SDS011;57049;51.450;-2.516;2022-08-19T13:59:31;9.47;;;1.10;;
69775;SDS011;57049;51.450;-2.516;2022-08-19T14:01:58;7.80;;;0.95;;
69775;SDS011;57049;51.450;-2.516;2022-08-19T14:04:24;7.77;;;0.83;;
69775;SDS011;57049;51.450;-2.516;2022-08-19T14:06:50;4.95;;;0.40;;
69775;SDS011;57049;51.450;-2.516;2022-08-19T14:09:15;6.57;;;0.60;;
69775;SDS011;57049;51.450;-2.516;2022-08-19T14:11:41;4.27;;;0.30;;
69775;SDS011;57049;51.450;-2.516;2022-08-19T14:14:06;7.03;;;0.60;;
69775;SDS011;57049;51.450;-2.516;2022-08-19T14:16:31;7.15;;;0.60;;
69775;SDS011;57049;51.450;-2.516;2022-08-19T14:18:57;6.10;;;0.60;;
69775;SDS011;57049;51.450;-2.516;2022-08-19T14:21:23;5.67;;;0.63;;
69775;SDS011;57049;51.450;-2.516;2022-08-19T14:23:50;5.00;;;0.93;;
69775;SDS011;57049;51.450;-2.516;2022-08-19T14:26:16;6.83;;;0.57;;
69775;SDS011;57049;51.450;-2.516;2022-08-19T14:28:43;4.57;;;0.50;;
69775;SDS011;57049;51.450;-2.516;2022-08-19T14:31:10;6.28;;;0.80;;
69775;SDS011;57049;51.450;-2.516;2022-08-19T14:33:37;4.85;;;0.40;;
69775;SDS011;57049;51.450;-2.516;2022-08-19T14:36:03;5.57;;;0.40;;
69775;SDS011;57049;51.450;-2.516;2022-08-19T14:38:29;5.82;;;0.50;;
69775;SDS011;57049;51.450;-2.516;2022-08-19T14:41:05;6.50;;;0.40;;
69775;SDS011;57049;51.450;-2.516;2022-08-19T14:43:57;5.40;;;0.30;;
69775;SDS011;57049;51.450;-2.516;2022-08-19T14:46:25;3.65;;;0.45;;
69775;SDS011;57049;51.450;-2.516;2022-08-19T14:48:53;6.65;;;0.65;;